Time;durP1;ratioP1;P1;durP2;ratioP2;P2;SDS_P1;SDS_P2;PMS_P1;PMS_P2;Temp;Humidity;BMP_temperature;BMP_pressure;BME280_temperature;BME280_humidity;BME280_pressure;Samples;Min_cycle;Max_cycle;Signal;HPM_P1;HPM_P2
2023/12/28 13:46:20;;;;;;;468.55;230.13;;;;;;;;;;5023474;28;20671;-46
2023/12/28 13:48:46;;;;;;;373.30;163.10;;;;;;;;;;5007131;28;20702;-46
2023/12/28 13:51:13;;;;;;;308.02;104.32;;;;;;;;;;5002243;28;20564;-46
2023/12/28 13:53:40;;;;;;;338.00;99.00;;;;;;;;;;4990526;28;20209;-46
2023/12/28 13:56:08;;;;;;;316.13;74.28;;;;;;;;;;4985535;28;20244;-46
2023/12/28 13:58:34;;;;;;;220.30;72.75;;;;;;;;;;5003724;22;20217;-48
2023/12/28 14:01:00;;;;;;;244.57;68.20;;;;;;;;;;4983727;28;20542;-49
2023/12/28 14:03:26;;;;;;;197.13;46.50;;;;;;;;;;4989063;28;20185;-48
2023/12/28 14:05:52;;;;;;;184.00;41.60;;;;;;;;;;4996560;28;20185;-48
2023/12/28 14:08:18;;;;;;;194.60;42.78;;;;;;;;;;4992311;28;20717;-49
2023/12/28 14:10:44;;;;;;;277.57;63.93;;;;;;;;;;4985852;28;20579;-49
2023/12/28 14:13:10;;;;;;;239.77;49.53;;;;;;;;;;4999209;28;20233;-49
2023/12/28 14:15:37;;;;;;;205.23;41.77;;;;;;;;;;4993155;28;20615;-48
2023/12/28 14:18:05;;;;;;;228.60;45.80;;;;;;;;;;4995214;28;20566;-49
2023/12/28 14:20:31;;;;;;;257.27;56.90;;;;;;;;;;4987890;28;20267;-49
2023/12/28 14:22:57;;;;;;;179.77;39.10;;;;;;;;;;4995050;28;20713;-49
2023/12/28 14:25:24;;;;;;;197.17;41.50;;;;;;;;;;4992437;28;20304;-48
2023/12/28 14:28:14;;;;;;;138.93;28.33;;;;;;;;;;5008087;28;20239;-49
2023/12/28 14:30:40;;;;;;;258.90;55.40;;;;;;;;;;4987877;28;20250;-48
2023/12/28 14:33:06;;;;;;;190.20;38.07;;;;;;;;;;4996748;28;20272;-49
2023/12/28 14:35:33;;;;;;;203.80;41.63;;;;;;;;;;5000728;28;20233;-49
2023/12/28 14:37:59;;;;;;;191.27;39.40;;;;;;;;;;4997732;28;20264;-48
2023/12/28 14:40:25;;;;;;;271.90;57.83;;;;;;;;;;4992310;28;20212;-48
2023/12/28 14:42:50;;;;;;;179.83;36.03;;;;;;;;;;4996920;28;20216;-48
2023/12/28 14:45:17;;;;;;;294.37;66.20;;;;;;;;;;4992801;28;20181;-49
2023/12/28 14:47:43;;;;;;;200.67;46.17;;;;;;;;;;4994945;28;20659;-48
2023/12/28 14:50:09;;;;;;;303.27;72.07;;;;;;;;;;4998139;28;20228;-48
2023/12/28 14:52:38;;;;;;;223.00;52.87;;;;;;;;;;4990608;28;20360;-49
2023/12/28 14:55:04;;;;;;;238.23;57.40;;;;;;;;;;4993032;28;20240;-48
2023/12/28 14:57:30;;;;;;;236.03;59.27;;;;;;;;;;4977859;28;20336;-49
2023/12/28 14:59:56;;;;;;;256.40;72.10;;;;;;;;;;4972986;28;20320;-49
2023/12/28 15:02:22;;;;;;;231.53;84.77;;;;;;;;;;4973742;28;20221;-49
2023/12/28 15:04:48;;;;;;;193.23;89.67;;;;;;;;;;4982445;28;20224;-49
2023/12/28 15:07:14;;;;;;;239.90;104.77;;;;;;;;;;4986542;28;20359;-49
2023/12/28 15:09:40;;;;;;;251.03;102.90;;;;;;;;;;4979334;28;20509;-48
2023/12/28 15:12:06;;;;;;;287.80;128.73;;;;;;;;;;4975390;28;20767;-48
2023/12/28 15:14:32;;;;;;;274.10;126.57;;;;;;;;;;4983885;28;20280;-48
2023/12/28 15:16:58;;;;;;;250.60;127.67;;;;;;;;;;4982258;28;20450;-49
2023/12/28 15:19:26;;;;;;;240.03;79.73;;;;;;;;;;4976596;28;20229;-49
2023/12/28 15:21:52;;;;;;;251.93;62.30;;;;;;;;;;4979557;28;20212;-49
2023/12/28 15:24:18;;;;;;;266.37;64.00;;;;;;;;;;4978247;28;20213;-49
2023/12/28 15:26:44;;;;;;;193.77;43.23;;;;;;;;;;4977384;28;20241;-48
2023/12/28 15:29:12;;;;;;;238.83;49.27;;;;;;;;;;4980265;28;20548;-49
2023/12/28 15:31:38;;;;;;;230.07;46.80;;;;;;;;;;4971976;28;20224;-49
2023/12/28 15:34:04;;;;;;;206.10;41.03;;;;;;;;;;4980043;28;20230;-48
2023/12/28 15:36:30;;;;;;;209.60;43.47;;;;;;;;;;4983517;28;20297;-49
2023/12/28 15:38:56;;;;;;;191.33;38.77;;;;;;;;;;4973113;28;20202;-48
2023/12/28 15:41:22;;;;;;;272.93;62.03;;;;;;;;;;4974716;28;20220;-48
2023/12/28 15:43:48;;;;;;;362.47;94.70;;;;;;;;;;4979503;28;20686;-48
2023/12/28 15:46:14;;;;;;;242.47;60.97;;;;;;;;;;4978558;28;20278;-49
2023/12/28 15:48:40;;;;;;;268.10;67.87;;;;;;;;;;4982664;28;20213;-49
2023/12/28 15:51:06;;;;;;;234.83;57.37;;;;;;;;;;4971065;28;20182;-48
2023/12/28 15:53:32;;;;;;;284.57;73.00;;;;;;;;;;4980730;28;20209;-48
2023/12/28 15:55:58;;;;;;;329.33;91.07;;;;;;;;;;4968997;28;20237;-49
2023/12/28 15:58:24;;;;;;;224.70;58.57;;;;;;;;;;4977151;28;20413;-49
2023/12/28 16:00:50;;;;;;;248.73;68.30;;;;;;;;;;4976598;28;20217;-48
2023/12/28 16:03:16;;;;;;;298.07;95.07;;;;;;;;;;4977140;28;20186;-49
2023/12/28 16:05:42;;;;;;;231.17;84.83;;;;;;;;;;4979547;28;20220;-49
2023/12/28 16:08:08;;;;;;;232.97;95.90;;;;;;;;;;4978980;28;20225;-48
2023/12/28 16:10:34;;;;;;;253.27;104.67;;;;;;;;;;4974054;28;20731;-48
2023/12/28 16:13:00;;;;;;;218.60;90.47;;;;;;;;;;4976606;28;20743;-48
2023/12/28 16:15:26;;;;;;;263.33;95.30;;;;;;;;;;4976683;28;20236;-48
2023/12/28 16:17:56;;;;;;;255.73;102.47;;;;;;;;;;4976568;28;20586;-48
2023/12/28 16:20:24;;;;;;;299.37;109.07;;;;;;;;;;4974723;28;20620;-48
2023/12/28 16:22:50;;;;;;;238.80;79.13;;;;;;;;;;4976352;28;20546;-48
2023/12/28 16:25:16;;;;;;;237.10;73.83;;;;;;;;;;4977204;28;20216;-48
2023/12/28 16:27:42;;;;;;;206.33;43.57;;;;;;;;;;4981225;28;20272;-48
2023/12/28 16:30:08;;;;;;;254.90;69.50;;;;;;;;;;4974438;28;20352;-48
2023/12/28 16:32:34;;;;;;;221.13;59.53;;;;;;;;;;4979704;28;20244;-48
2023/12/28 16:35:00;;;;;;;256.07;60.00;;;;;;;;;;4974436;28;20639;-48
2023/12/28 16:37:26;;;;;;;226.83;44.10;;;;;;;;;;4980467;28;20240;-48
2023/12/28 16:39:52;;;;;;;204.43;41.50;;;;;;;;;;4969403;28;20229;-48
2023/12/28 16:42:18;;;;;;;246.10;48.03;;;;;;;;;;4978850;28;21061;-48
2023/12/28 16:44:44;;;;;;;205.90;40.63;;;;;;;;;;4975529;28;20225;-48
2023/12/28 16:47:11;;;;;;;280.60;55.43;;;;;;;;;;4979418;28;20217;-48
2023/12/28 16:49:37;;;;;;;245.57;48.30;;;;;;;;;;4979034;28;20240;-48
2023/12/28 16:52:03;;;;;;;208.87;40.03;;;;;;;;;;4975383;28;20221;-48
2023/12/28 16:54:29;;;;;;;305.53;61.33;;;;;;;;;;4973762;28;20546;-48
2023/12/28 16:56:55;;;;;;;191.53;35.90;;;;;;;;;;4984573;28;20280;-48
2023/12/28 16:59:21;;;;;;;211.13;40.03;;;;;;;;;;4977467;28;20387;-48
2023/12/28 17:01:49;;;;;;;247.63;50.80;;;;;;;;;;4971070;28;20214;-48
2023/12/28 17:04:15;;;;;;;230.13;45.43;;;;;;;;;;4968746;28;20572;-48
2023/12/28 17:06:41;;;;;;;207.00;50.80;;;;;;;;;;4975143;28;20192;-48
2023/12/28 17:09:09;;;;;;;286.33;86.80;;;;;;;;;;4965601;28;20336;-48
2023/12/28 17:11:35;;;;;;;211.03;64.27;;;;;;;;;;4978344;28;20267;-48
2023/12/28 17:14:01;;;;;;;259.47;86.77;;;;;;;;;;4974386;28;20224;-48
2023/12/28 17:16:27;;;;;;;305.60;118.30;;;;;;;;;;4972048;28;20657;-48
2023/12/28 17:18:54;;;;;;;237.90;85.90;;;;;;;;;;4976806;28;20230;-48
2023/12/28 17:21:24;;;;;;;301.53;120.97;;;;;;;;;;4967352;28;20186;-48
2023/12/28 17:23:51;;;;;;;308.70;135.03;;;;;;;;;;4965729;28;20221;-48
2023/12/28 17:26:24;;;;;;;317.97;116.40;;;;;;;;;;4962039;28;20662;-48
2023/12/28 17:29:06;;;;;;;303.50;105.83;;;;;;;;;;4971036;28;20220;-48
2023/12/28 17:31:33;;;;;;;236.90;51.80;;;;;;;;;;4973741;28;20213;-48
2023/12/28 17:33:59;;;;;;;224.10;48.40;;;;;;;;;;4970625;28;20688;-48
2023/12/28 17:36:27;;;;;;;227.20;50.27;;;;;;;;;;4972312;28;20217;-48
2023/12/28 17:38:53;;;;;;;214.60;50.57;;;;;;;;;;4975031;28;20220;-48
2023/12/28 17:41:24;;;;;;;255.03;88.70;;;;;;;;;;4969434;28;20275;-48
2023/12/28 17:43:56;;;;;;;329.77;132.07;;;;;;;;;;4977092;28;20215;-48
2023/12/28 17:46:31;;;;;;;248.40;73.03;;;;;;;;;;4976096;28;20222;-48
2023/12/28 17:48:59;;;;;;;298.80;125.30;;;;;;;;;;4978447;28;20437;-48
2023/12/28 17:51:26;;;;;;;232.43;70.07;;;;;;;;;;4977128;28;20821;-48
2023/12/28 17:53:52;;;;;;;245.80;81.20;;;;;;;;;;4976075;28;20297;-48
2023/12/28 17:56:19;;;;;;;242.43;91.87;;;;;;;;;;4972734;28;20229;-48
2023/12/28 17:58:45;;;;;;;232.73;66.57;;;;;;;;;;4976326;28;20226;-48
2023/12/28 18:01:11;;;;;;;240.63;61.20;;;;;;;;;;4968344;28;20416;-48
2023/12/28 18:03:38;;;;;;;290.40;70.53;;;;;;;;;;4972048;28;20608;-48
2023/12/28 18:06:04;;;;;;;215.13;48.97;;;;;;;;;;4985425;28;20196;-48
2023/12/28 18:08:30;;;;;;;224.97;51.40;;;;;;;;;;4967310;28;20443;-48
2023/12/28 18:10:57;;;;;;;251.63;59.03;;;;;;;;;;4970580;28;20221;-48
2023/12/28 18:13:23;;;;;;;258.50;64.73;;;;;;;;;;4973328;28;22838;-48
2023/12/28 18:15:49;;;;;;;232.30;55.73;;;;;;;;;;4975157;28;20332;-48
2023/12/28 18:18:15;;;;;;;251.37;56.53;;;;;;;;;;4976219;28;20371;-48
2023/12/28 18:20:41;;;;;;;202.07;34.83;;;;;;;;;;4969382;28;20222;-48
2023/12/28 18:23:09;;;;;;;230.47;39.07;;;;;;;;;;4973311;28;20283;-48
2023/12/28 18:25:35;;;;;;;184.77;32.77;;;;;;;;;;4975155;28;20836;-48
2023/12/28 18:28:01;;;;;;;181.37;31.73;;;;;;;;;;4978825;28;20612;-48
2023/12/28 18:30:27;;;;;;;248.73;43.90;;;;;;;;;;4974407;28;20185;-49
2023/12/28 18:32:55;;;;;;;235.73;40.53;;;;;;;;;;4979651;28;20190;-48
2023/12/28 18:35:21;;;;;;;180.13;30.47;;;;;;;;;;4981732;28;20267;-48
2023/12/28 18:37:47;;;;;;;196.40;33.40;;;;;;;;;;4981414;28;20323;-48
2023/12/28 18:40:13;;;;;;;180.60;31.03;;;;;;;;;;4971514;28;20585;-48
2023/12/28 18:42:39;;;;;;;191.43;34.00;;;;;;;;;;4977704;28;20715;-48
2023/12/28 18:45:06;;;;;;;203.27;36.50;;;;;;;;;;4974064;28;20190;-48
2023/12/28 18:47:32;;;;;;;240.97;41.90;;;;;;;;;;4969132;28;20221;-48
2023/12/28 18:49:58;;;;;;;145.93;25.73;;;;;;;;;;4977149;28;20271;-48
2023/12/28 18:52:24;;;;;;;185.70;31.47;;;;;;;;;;4975570;28;20320;-48
2023/12/28 18:54:50;;;;;;;170.63;28.87;;;;;;;;;;4979079;28;20391;-48
2023/12/28 18:57:16;;;;;;;197.43;33.37;;;;;;;;;;4985519;28;20189;-48
2023/12/28 18:59:42;;;;;;;197.53;35.07;;;;;;;;;;4989931;28;20228;-48
2023/12/28 19:02:08;;;;;;;173.43;30.37;;;;;;;;;;4989068;28;20576;-48
2023/12/28 19:04:34;;;;;;;200.17;34.83;;;;;;;;;;4990238;28;20560;-48
2023/12/28 19:07:00;;;;;;;158.33;27.53;;;;;;;;;;4991904;28;20230;-48
2023/12/28 19:09:27;;;;;;;244.50;43.03;;;;;;;;;;4972191;28;20208;-48
2023/12/28 19:11:53;;;;;;;178.13;31.33;;;;;;;;;;4986854;28;20240;-48
2023/12/28 19:14:19;;;;;;;168.77;29.80;;;;;;;;;;4987663;28;20284;-48
2023/12/28 19:16:45;;;;;;;192.50;33.53;;;;;;;;;;4979673;28;20220;-48
2023/12/28 19:19:10;;;;;;;214.93;38.43;;;;;;;;;;4976659;28;20252;-48
2023/12/28 19:21:36;;;;;;;194.27;35.60;;;;;;;;;;4978844;28;20544;-48
2023/12/28 19:24:02;;;;;;;183.37;31.30;;;;;;;;;;4983257;28;20200;-48
2023/12/28 19:26:28;;;;;;;206.00;35.47;;;;;;;;;;4971625;28;20232;-48
2023/12/28 19:28:54;;;;;;;220.37;37.83;;;;;;;;;;4973226;28;20294;-48
2023/12/28 19:31:20;;;;;;;187.30;32.10;;;;;;;;;;4977679;28;20225;-48
2023/12/28 19:33:46;;;;;;;236.10;41.60;;;;;;;;;;4980505;28;20259;-48
2023/12/28 19:36:12;;;;;;;204.50;34.83;;;;;;;;;;4981066;28;20568;-48
2023/12/28 19:38:38;;;;;;;205.93;35.33;;;;;;;;;;4970706;28;20236;-48
2023/12/28 19:41:04;;;;;;;189.50;32.70;;;;;;;;;;4981468;28;20271;-48
2023/12/28 19:43:30;;;;;;;229.27;41.37;;;;;;;;;;4984360;28;20308;-48
2023/12/28 19:45:56;;;;;;;208.53;36.57;;;;;;;;;;4967077;28;20214;-48
2023/12/28 19:48:22;;;;;;;197.57;33.77;;;;;;;;;;4982263;28;20229;-48
2023/12/28 19:50:49;;;;;;;186.20;32.37;;;;;;;;;;4980510;28;20891;-48
2023/12/28 19:53:18;;;;;;;191.07;31.57;;;;;;;;;;4976673;28;20233;-49
2023/12/28 19:55:44;;;;;;;228.73;39.57;;;;;;;;;;4978809;28;20225;-48
2023/12/28 20:00:43;;;;;;;220.60;32.83;;;;;;;;;;4975715;28;21344;-55
2023/12/28 20:03:09;;;;;;;120.30;17.17;;;;;;;;;;4981940;28;20181;-55
2023/12/28 20:05:35;;;;;;;255.23;39.97;;;;;;;;;;4985815;28;20427;-55
2023/12/28 20:08:02;;;;;;;158.60;23.00;;;;;;;;;;4987215;28;20366;-55
2023/12/28 20:10:31;;;;;;;186.67;28.30;;;;;;;;;;4982333;28;20599;-55
2023/12/28 20:12:57;;;;;;;160.87;25.27;;;;;;;;;;4988089;28;20205;-55
2023/12/28 20:15:24;;;;;;;212.37;32.80;;;;;;;;;;4980114;28;20794;-55
2023/12/28 20:17:50;;;;;;;220.20;32.33;;;;;;;;;;4982533;28;20322;-55
2023/12/28 20:20:16;;;;;;;184.20;26.70;;;;;;;;;;4984175;28;20232;-55
2023/12/28 20:22:42;;;;;;;232.90;33.93;;;;;;;;;;4988577;28;20209;-55
2023/12/28 20:25:09;;;;;;;224.30;32.83;;;;;;;;;;4981494;28;20209;-55
2023/12/28 20:30:39;;;;;;;253.07;37.77;;;;;;;;;;4985920;28;20189;-55
2023/12/28 20:33:05;;;;;;;172.60;24.87;;;;;;;;;;4988381;28;20251;-56
2023/12/28 20:35:31;;;;;;;183.37;26.40;;;;;;;;;;4991008;28;20240;-55
2023/12/28 20:37:57;;;;;;;169.60;24.67;;;;;;;;;;4985845;28;20216;-55
2023/12/28 20:40:23;;;;;;;215.57;31.30;;;;;;;;;;4982007;28;20583;-56
2023/12/28 20:42:50;;;;;;;159.07;23.53;;;;;;;;;;4982784;28;20237;-55
2023/12/28 20:45:16;;;;;;;219.77;33.00;;;;;;;;;;4985598;28;20294;-55
2023/12/28 20:47:42;;;;;;;221.60;32.93;;;;;;;;;;4979624;28;20309;-55
2023/12/28 20:50:09;;;;;;;173.13;24.97;;;;;;;;;;4984157;28;20324;-55
2023/12/28 20:52:35;;;;;;;193.07;28.03;;;;;;;;;;4993880;28;20213;-55
2023/12/28 20:55:02;;;;;;;165.43;23.93;;;;;;;;;;4990288;28;20236;-55
2023/12/28 20:57:31;;;;;;;157.80;22.67;;;;;;;;;;4988210;28;20196;-55
2023/12/28 20:59:57;;;;;;;167.70;24.03;;;;;;;;;;4996226;28;21125;-55
2023/12/28 21:02:23;;;;;;;226.00;32.50;;;;;;;;;;4994608;28;20217;-55
2023/12/28 21:04:50;;;;;;;215.03;31.27;;;;;;;;;;4993316;28;20312;-54
2023/12/28 21:07:16;;;;;;;171.57;24.40;;;;;;;;;;4990092;28;20240;-55
2023/12/28 21:09:42;;;;;;;211.27;31.40;;;;;;;;;;4987092;28;20263;-55
2023/12/28 21:12:09;;;;;;;179.17;25.30;;;;;;;;;;4993300;28;20186;-56
2023/12/28 21:14:41;;;;;;;192.93;27.33;;;;;;;;;;4987173;28;20544;-55
2023/12/28 21:17:07;;;;;;;177.03;25.23;;;;;;;;;;4987542;28;20225;-55
2023/12/28 21:19:33;;;;;;;169.73;24.77;;;;;;;;;;4969060;28;20347;-55
2023/12/28 21:22:00;;;;;;;184.57;26.23;;;;;;;;;;4986596;28;20220;-55
2023/12/28 21:24:26;;;;;;;266.80;40.20;;;;;;;;;;4984117;28;20198;-55
2023/12/28 21:26:52;;;;;;;221.17;33.77;;;;;;;;;;4987589;28;20579;-55
2023/12/28 21:29:18;;;;;;;263.77;40.13;;;;;;;;;;4985250;28;20699;-55
2023/12/28 21:31:44;;;;;;;205.23;30.33;;;;;;;;;;4982826;28;20216;-55
2023/12/28 21:34:10;;;;;;;304.97;46.07;;;;;;;;;;4981109;28;20647;-55
2023/12/28 21:36:36;;;;;;;196.70;28.47;;;;;;;;;;4989703;28;20191;-56
2023/12/28 21:39:03;;;;;;;179.70;25.87;;;;;;;;;;4978149;28;20806;-56
2023/12/28 21:41:30;;;;;;;186.07;27.13;;;;;;;;;;4978865;28;20216;-55
2023/12/28 21:43:56;;;;;;;225.10;33.20;;;;;;;;;;4980937;28;20290;-56
2023/12/28 21:46:22;;;;;;;203.80;29.27;;;;;;;;;;4984669;28;20221;-56
2023/12/28 21:48:48;;;;;;;228.67;34.73;;;;;;;;;;4987022;28;20826;-56
2023/12/28 21:51:14;;;;;;;170.07;24.67;;;;;;;;;;4987447;28;20276;-56
2023/12/28 21:53:40;;;;;;;208.60;30.07;;;;;;;;;;4984091;28;20691;-56
2023/12/28 21:56:06;;;;;;;188.37;26.90;;;;;;;;;;4976155;28;20853;-56
2023/12/28 21:58:32;;;;;;;190.40;27.23;;;;;;;;;;4984809;28;20215;-56
2023/12/28 22:00:58;;;;;;;179.70;26.67;;;;;;;;;;4978533;28;20229;-56
2023/12/28 22:03:24;;;;;;;161.47;23.90;;;;;;;;;;4986853;28;20192;-56
2023/12/28 22:05:50;;;;;;;191.60;28.40;;;;;;;;;;4983153;28;20272;-56
2023/12/28 22:08:16;;;;;;;191.63;28.63;;;;;;;;;;4994550;28;20255;-56
2023/12/28 22:10:42;;;;;;;233.23;33.83;;;;;;;;;;4987036;28;20266;-56
2023/12/28 22:13:08;;;;;;;198.53;28.57;;;;;;;;;;4988139;28;20644;-56
2023/12/28 22:15:35;;;;;;;161.53;23.83;;;;;;;;;;4995964;28;20307;-56
2023/12/28 22:18:01;;;;;;;150.30;22.20;;;;;;;;;;4988829;28;20879;-56
2023/12/28 22:20:27;;;;;;;148.33;21.87;;;;;;;;;;4989573;28;20271;-56
2023/12/28 22:22:53;;;;;;;183.80;27.37;;;;;;;;;;4993923;28;20225;-56
2023/12/28 22:25:19;;;;;;;184.57;27.87;;;;;;;;;;4993901;28;20272;-56
2023/12/28 22:27:45;;;;;;;229.27;34.10;;;;;;;;;;4996824;28;20636;-57
2023/12/28 22:30:14;;;;;;;168.63;24.50;;;;;;;;;;4995470;28;21021;-56
2023/12/28 22:32:40;;;;;;;178.47;26.40;;;;;;;;;;4993595;28;20291;-56
2023/12/28 22:35:06;;;;;;;173.50;25.80;;;;;;;;;;4980920;28;20718;-56
2023/12/28 22:37:32;;;;;;;174.10;25.40;;;;;;;;;;4985510;28;20214;-56
2023/12/28 22:40:01;;;;;;;233.93;34.40;;;;;;;;;;4985677;28;20223;-56
2023/12/28 22:42:27;;;;;;;254.70;39.20;;;;;;;;;;4980783;28;20196;-56
2023/12/28 22:44:53;;;;;;;225.47;32.63;;;;;;;;;;4983661;28;20540;-56
2023/12/28 22:47:23;;;;;;;213.40;31.80;;;;;;;;;;4981416;28;20323;-56
2023/12/28 22:49:49;;;;;;;243.53;36.87;;;;;;;;;;4989036;28;20229;-56
2023/12/28 22:52:15;;;;;;;207.40;30.70;;;;;;;;;;4980486;28;20232;-56
2023/12/28 22:54:42;;;;;;;180.17;26.57;;;;;;;;;;4984144;28;20210;-56
2023/12/28 22:57:08;;;;;;;187.20;27.17;;;;;;;;;;4990812;28;20200;-56
2023/12/28 22:59:34;;;;;;;160.40;24.20;;;;;;;;;;4982971;28;20221;-56
2023/12/28 23:02:00;;;;;;;228.83;33.47;;;;;;;;;;4968148;28;20213;-56
2023/12/28 23:04:26;;;;;;;194.90;28.20;;;;;;;;;;4981637;28;20206;-57
2023/12/28 23:06:52;;;;;;;170.13;25.17;;;;;;;;;;4982059;28;20214;-56
2023/12/28 23:09:18;;;;;;;254.13;38.23;;;;;;;;;;4981269;28;20679;-56
2023/12/28 23:11:44;;;;;;;204.63;29.57;;;;;;;;;;4988456;28;20865;-56
2023/12/28 23:14:10;;;;;;;200.30;29.83;;;;;;;;;;4990120;28;20209;-56
2023/12/28 23:16:36;;;;;;;169.93;24.50;;;;;;;;;;4989496;28;20217;-56
2023/12/28 23:19:03;;;;;;;188.00;27.67;;;;;;;;;;4967796;28;20730;-56
2023/12/28 23:21:29;;;;;;;223.40;32.03;;;;;;;;;;4983745;28;20177;-56
2023/12/28 23:23:55;;;;;;;250.57;39.67;;;;;;;;;;4985733;28;20264;-56
2023/12/28 23:26:22;;;;;;;216.50;31.27;;;;;;;;;;4979374;28;20213;-56
2023/12/28 23:28:48;;;;;;;176.80;26.20;;;;;;;;;;4988115;28;20229;-56
2023/12/28 23:31:14;;;;;;;214.07;30.53;;;;;;;;;;4983276;28;20223;-56
2023/12/28 23:33:40;;;;;;;220.00;33.03;;;;;;;;;;4983536;28;20189;-56
2023/12/28 23:36:08;;;;;;;224.93;33.30;;;;;;;;;;4989120;28;20209;-56
2023/12/28 23:38:35;;;;;;;194.73;27.97;;;;;;;;;;4988544;28;20248;-56
2023/12/28 23:41:01;;;;;;;247.57;36.87;;;;;;;;;;4980592;28;20730;-56
2023/12/28 23:43:27;;;;;;;224.63;33.50;;;;;;;;;;4986136;28;20268;-56
2023/12/28 23:45:53;;;;;;;205.90;31.80;;;;;;;;;;4981314;28;20287;-57
2023/12/28 23:48:19;;;;;;;186.87;26.30;;;;;;;;;;4988748;28;20218;-57
2023/12/28 23:50:46;;;;;;;160.07;23.07;;;;;;;;;;4984747;28;20219;-55
2023/12/28 23:53:12;;;;;;;205.40;30.03;;;;;;;;;;4982099;28;20622;-55
2023/12/28 23:55:38;;;;;;;198.37;28.80;;;;;;;;;;4984507;28;20256;-57
2023/12/28 23:58:04;;;;;;;204.73;29.70;;;;;;;;;;4988880;28;20232;-57
